http://www.privatejetfinder.com

 

Airport Name : Simon Bolivar Intl

Other Name : Guayaquil

ICAO : SEGU

IATA : GYE

FAA :

Latitude : -2.157419

Longitude : -79.883558

Country : Ecuador

Local Date and Time : 21 Jan 2020 22:25

 

TAF (Terminal Aerodrome Forecast)

SEGU 212255Z 2200/2224 05006KT 9999 FEW030 BKN100 BECMG 2203/2204 31006KT SCT023 BKN100 TEMPO 2206/2209 8000 RA FM220900 21006KT 9999 FEW010 BKN020 BKN090 FM221500 16005KT 9999 SCT023 BKN100 BECMG 2220/2221 21009KT TX31/2220Z TN24/2210Z

 

METAR (METeorological Aerodrome Report)

SEGU 220300Z 22008KT 9999 -RA FEW010 BKN020 BKN090 26/23 Q1013 NOSIG RMK A2992

SEGU 220200Z 06003KT 9999 SCT030 SCT100 27/24 Q1012 NOSIG RMK A2989

SEGU 220100Z 06003KT 9999 SCT030 SCT100 28/23 Q1011 NOSIG RMK A2987

SEGU 220000Z 05004KT 9999 SCT026 FEWTCU030 SCT100 28/23 Q1010 NOSIG RMK A2983

To Charter a Jet Click here.